Weather observations for the past three days for
Fayette County Airport
Imperial (Metric)
Date Time (edt) Wind (mph) Vis. (mi.) Weather Sky Cond. Temperature (ºF) Relative Humidity Wind Chill (°F) Heat Index (°F) Pressure Precipitation (in)
Air Dwpt 6 hour altimeter (in) sea level (mb) 1 hr 3 hr 6 hr
Max. Min.
04 21:15 S 9 10.00 Fair CLR 66.2 50 56% 29.71 0.0
04 20:55 SW 10 10.00 A Few Clouds FEW120 66.2 51.8 60% 29.7 0.0
04 20:35 S 9 10.00 Fair CLR 68 51.8 56% 29.7 0.0
04 20:15 S 9 10.00 Fair CLR 68 51.8 56% 29.71 0.0
04 19:55 S 9 10.00 Fair CLR 69.8 51.8 74.5 66.7 53% 29.7 0.0
04 19:35 S 9 10.00 Fair CLR 69.8 51.8 53% 29.71 0.0
04 19:15 SW 10 10.00 A Few Clouds FEW120 73.4 50 44% 29.72 0.0
04 18:55 SW 9 G 16 10.00 A Few Clouds FEW120 71.6 50 47% 29.73 0.0
04 18:35 SW 17 G 23 10.00 Fair CLR 73.4 50 44% 29.73 0.0
04 18:15 SW 15 G 28 10.00 Fair CLR 73.4 50 44% 29.74 0.0
04 17:56 SW 20 G 24 10.00 Fair CLR 73.4 50 44% 29.74 0.0
04 17:35 SW 16 G 26 10.00 Fair CLR 73.4 48.2 41% 29.74 0.0
04 17:15 SW 17 G 26 10.00 Fair CLR 71.6 50 47% 29.75 0.0
04 16:55 SW 15 G 23 10.00 Fair CLR 71.6 50 47% 29.75 0.0
04 16:35 SW 12 10.00 A Few Clouds FEW090 68 51.8 56% 29.75 0.0
04 16:15 SW 9 G 20 10.00 Light Rain SCT090 66.2 50 56% 29.77 0.0
04 15:55 SW 10 10.00 Light Rain FEW070 FEW090 68 50 53% 29.78 0.0
04 15:35 SW 17 G 28 10.00 A Few Clouds FEW110 68 50 53% 29.81 0.0
04 15:16 SW 18 G 29 10.00 Partly Cloudy SCT110 69.8 50 50% 29.79 0.0
04 14:55 SW 16 G 31 10.00 Fair CLR 71.6 50 47% 29.78 0.0
04 14:35 S 17 G 25 10.00 A Few Clouds FEW110 71.6 50 47% 29.77 0.0
04 14:15 SW 16 G 25 10.00 Mostly Cloudy BKN110 69.8 50 50% 29.77 0.0
04 13:55 SW 20 G 25 10.00 Partly Cloudy SCT100 69.8 48.2 70.2 52.9 46% 29.78 0.0
04 13:35 SW 16 G 24 10.00 A Few Clouds FEW100 68 48.2 49% 29.78 0.0
04 13:15 SW 20 G 25 10.00 Partly Cloudy SCT100 69.8 48.2 46% 29.78 0.0
04 12:55 SW 14 G 21 10.00 Overcast OVC100 68 48.2 49% 29.79 0.0
04 12:35 SW 16 10.00 Overcast OVC100 66.2 48.2 52% 29.8 0.0
04 12:15 SW 16 G 28 10.00 A Few Clouds FEW100 66.2 48.2 52% 29.8 0.0
04 11:55 SW 16 G 25 10.00 Fair CLR 66.2 48.2 52% 29.8 0.0
04 11:35 S 16 G 26 10.00 Fair CLR 64.4 46.4 52% 29.8 0.0
04 11:15 SW 17 G 25 10.00 Fair CLR 64.4 46.4 52% 29.81 0.0
04 10:55 SW 20 G 26 10.00 Fair CLR 62.6 46.4 56% 29.81 0.0
04 10:35 SW 21 G 30 10.00 Fair and Breezy CLR 60.8 46.4 59% 29.81 0.0
04 10:15 SW 17 G 30 10.00 Fair CLR 60.8 44.6 55% 29.82 0.0
04 09:56 SW 22 G 26 10.00 Fair and Breezy CLR 59 44.6 59% 29.82 0.0
04 09:35 SW 20 G 28 10.00 Fair CLR 59 44.6 59% 29.83 0.0
04 09:15 SW 21 G 28 10.00 Partly Cloudy and Breezy FEW065 FEW080 SCT110 57.2 42.8 59% 29.83 0.0
04 08:55 SW 18 10.00 Mostly Cloudy SCT070 BKN095 BKN110 55.4 41 59% 29.83 0.0
04 08:35 SW 15 G 24 10.00 A Few Clouds FEW085 55.4 41 59% 29.83 0.0
04 08:15 SW 16 G 23 10.00 A Few Clouds FEW090 55.4 41 59% 29.82 0.0
04 07:55 SW 15 G 24 10.00 Fair CLR 53.6 39.2 52.9 48.2 58% 29.83 0.0
04 07:35 SW 15 G 22 10.00 Fair CLR 51.8 39.2 62% 29.82 0.0
04 07:15 S 12 10.00 Fair CLR 50 39.2 67% 46 29.82 0.0
04 06:55 S 10 10.00 Fair CLR 48.2 39.2 71% 44 29.82 0.0
04 06:35 S 8 10.00 Fair CLR 48.2 39.2 71% 45 29.82 0.0
04 06:15 SW 10 10.00 Fair CLR 50 39.2 67% 46 29.83 0.0
04 05:55 SW 10 10.00 Fair CLR 50 37.4 62% 46 29.83 0.0
04 05:15 SW 10 10.00 Partly Cloudy SCT065 50 37.4 62% 46 29.84 0.0
04 04:55 S 12 G 17 10.00 Mostly Cloudy BKN065 BKN080 50 37.4 62% 46 29.84 0.0
04 04:35 SW 10 10.00 Mostly Cloudy BKN065 50 37.4 62% 46 29.85 0.0
04 04:15 S 10 10.00 Fair CLR 50 37.4 62% 46 29.85 0.0
04 03:55 S 12 10.00 Fair CLR 50 37.4 62% 46 29.85 0.0
04 03:35 S 13 10.00 Fair CLR 50 37.4 62% 46 29.85 0.0
04 03:15 S 12 10.00 Fair CLR 50 37.4 62% 46 29.86 0.0
04 02:55 SW 13 10.00 Fair CLR 50 37.4 62% 46 29.87 0.0
04 02:35 SW 14 10.00 Partly Cloudy FEW065 SCT110 51.8 37.4 58% 29.88 0.0
04 02:06 S 13 10.00 Overcast SCT065 OVC110 51.8 37.4 58% 29.89 0.0
04 01:55 S 12 10.00 Overcast SCT065 OVC110 53.6 37.4 53.4 50.4 54% 29.89 0.0
04 01:35 S 13 10.00 Overcast OVC110 51.8 37.4 58% 29.9 0.0
04 01:15 S 12 10.00 Overcast OVC110 53.6 37.4 54% 29.9 0.0
04 00:55 S 12 10.00 Overcast FEW070 FEW085 OVC110 53.6 35.6 51% 29.9 0.0
04 00:35 S 10 10.00 Overcast BKN070 OVC100 53.6 35.6 51% 29.91 0.0
04 00:15 S 9 10.00 Overcast BKN070 OVC100 53.6 35.6 51% 29.92 0.0
03 23:55 S 9 10.00 Overcast BKN070 OVC090 53.6 35.6 51% 29.92 0.0
03 23:35 S 10 10.00 Overcast BKN070 OVC110 53.6 35.6 51% 29.92 0.0
03 23:15 S 10 10.00 Overcast OVC070 51.8 37.4 58% 29.93 0.0
03 22:55 S 6 10.00 Overcast OVC080 50 39.2 67% 48 29.93 0.0
03 22:35 SE 7 10.00 Overcast FEW060 OVC080 50 39.2 67% 48 29.93 0.0
03 22:15 SE 8 10.00 Overcast FEW070 BKN080 OVC100 51.8 39.2 62% 29.94 0.0
03 21:55 S 6 10.00 Overcast OVC070 51.8 39.2 62% 29.94 0.0
03 21:35 SE 6 10.00 Overcast OVC070 51.8 39.2 62% 29.94 0.0
03 21:15 SE 5 10.00 Overcast OVC080 51.8 39.2 62% 29.94 0.0
03 20:55 SE 6 10.00 Overcast FEW060 OVC080 51.8 39.2 62% 29.94 0.0
03 20:35 SE 6 10.00 Overcast OVC060 51.8 39.2 62% 29.93 0.0
03 20:15 SE 5 10.00 Overcast BKN060 OVC080 51.8 39.2 62% 29.93 0.0
03 19:55 E 3 10.00 Overcast BKN090 OVC120 51.8 39.2 62.1 51.4 62% 29.94 0.0
03 19:35 E 5 10.00 Overcast FEW060 OVC090 51.8 39.2 62% 29.94 0.0
03 19:15 N 6 10.00 Overcast FEW060 OVC090 51.8 37.4 58% 29.96 0.0
03 18:55 N 5 10.00 Overcast FEW055 BKN070 OVC085 53.6 37.4 54% 29.97 0.0
03 18:35 W 5 10.00 Light Rain FEW033 SCT048 OVC070 53.6 35.6 51% 29.98 0.0
03 18:15 W 12 G 20 10.00 Light Rain FEW039 FEW048 SCT075 53.6 33.8 47% 29.98 0.0
03 17:55 SW 18 G 32 10.00 Fair CLR 55.4 32 41% 29.98 0.0
03 17:35 W 18 G 36 10.00 A Few Clouds FEW070 57.2 28.4 33% 29.98 0.0
03 17:15 SW 14 G 21 10.00 A Few Clouds FEW110 59 28.4 31% 29.98 0.0
03 16:55 SW 15 G 23 10.00 A Few Clouds FEW110 60.8 28.4 29% 29.98 0.0
03 16:35 SW 16 G 24 10.00 Fair CLR 60.8 28.4 29% 29.98 0.0
03 16:15 SW 17 G 29 10.00 Fair CLR 60.8 28.4 29% 29.98 0.0
03 15:55 SW 16 G 24 10.00 Fair CLR 60.8 30.2 31% 29.99 0.0
03 15:35 SW 16 G 25 10.00 Fair CLR 60.8 28.4 29% 30 0.0
03 15:15 S 15 G 28 10.00 Fair CLR 60.8 30.2 31% 30.01 0.0
03 14:55 SW 16 G 25 10.00 Fair CLR 60.8 30.2 31% 30.02 0.0
03 14:35 SW 13 10.00 Fair CLR 60.8 28.4 29% 30.03 0.0
03 14:15 SW 17 G 23 10.00 Fair CLR 60.8 28.4 29% 30.03 0.0
03 13:55 SW 15 G 23 10.00 A Few Clouds FEW065 59 28.4 60.3 39 31% 30.04 0.0
03 13:35 SW 15 G 22 10.00 A Few Clouds FEW065 59 26.6 29% 30.06 0.0
03 13:15 SW 16 G 24 10.00 Fair CLR 59 28.4 31% 30.06 0.0
03 12:55 SW 15 G 23 10.00 Fair CLR 59 30.2 34% 30.07 0.0
03 12:35 W 14 G 23 10.00 A Few Clouds FEW060 59 30.2 34% 30.08 0.0
03 12:16 SW 17 G 23 10.00 Fair CLR 57.2 30.2 36% 30.08 0.0
03 11:55 SW 14 G 20 10.00 Fair CLR 57.2 30.2 36% 30.09 0.0
03 11:35 W 13 G 22 10.00 Fair CLR 55.4 30.2 38% 30.09 0.0
03 11:15 W 14 G 21 10.00 Fair CLR 55.4 32 41% 30.09 0.0
03 10:55 W 16 10.00 Fair CLR 53.6 30.2 41% 30.09 0.0
03 10:35 W 17 G 21 10.00 Fair CLR 53.6 30.2 41% 30.09 0.0
03 10:15 W 13 G 20 10.00 Fair CLR 51.8 30.2 44% 30.09 0.0
03 09:55 W 14 G 17 10.00 Fair CLR 50 32 50% 45 30.09 0.0
03 09:35 SW 13 G 17 10.00 Fair CLR 48.2 32 54% 43 30.1 0.0
03 09:15 SW 14 10.00 Fair CLR 46.4 33.8 62% 41 30.1 0.0
03 08:55 SW 10 10.00 Fair CLR 44.6 33.8 66% 40 30.1 0.0
03 08:35 SW 10 10.00 Fair CLR 42.8 32 66% 38 30.1 0.0
03 08:15 SW 9 10.00 Fair CLR 41 32 70% 36 30.1 0.0
03 07:55 SW 10 10.00 Fair CLR 39.2 32 39 33.6 75% 33 30.09 0.0
03 07:35 SW 7 10.00 Fair CLR 37.4 32 81% 33 30.09 0.0
03 07:15 SW 7 10.00 Fair CLR 35.6 30.2 81% 31 30.08 0.0
03 06:56 SW 6 10.00 Fair CLR 35.6 30.2 81% 31 30.07 0.0
03 06:35 SW 7 10.00 Fair CLR 35.6 30.2 81% 31 30.07 0.0
03 06:15 SW 7 10.00 Fair CLR 35.6 30.2 81% 31 30.06 0.0
03 05:55 SW 7 10.00 Fair CLR 35.6 30.2 81% 31 30.06 0.0
03 05:35 SW 7 10.00 Fair CLR 35.6 30.2 81% 31 30.06 0.0
03 05:15 SW 7 10.00 Fair CLR 33.8 30.2 87% 28 30.06 0.0
03 04:55 SW 7 10.00 Fair CLR 33.8 30.2 87% 28 30.06 0.0
03 04:35 SW 6 10.00 Fair CLR 33.8 30.2 87% 29 30.06 0.0
03 04:15 SW 6 10.00 Fair CLR 33.8 30.2 87% 29 30.05 0.0
03 03:55 SW 7 10.00 Fair CLR 35.6 30.2 81% 31 30.05 0.0
03 03:35 SW 6 10.00 Fair CLR 35.6 30.2 81% 31 30.05 0.0
03 03:15 SW 5 10.00 Fair CLR 35.6 30.2 81% 32 30.05 0.0
03 02:56 SW 5 10.00 Fair CLR 35.6 32 87% 32 30.05 0.0
03 02:35 SW 5 10.00 A Few Clouds FEW060 35.6 32 87% 32 30.06 0.0
03 02:15 SW 5 10.00 Fair CLR 35.6 30.2 81% 32 30.06 0.0
03 01:55 SW 6 10.00 Fair CLR 33.8 30.2 46.2 33.6 87% 29 30.06 0.0
03 01:35 SW 5 10.00 Fair CLR 33.8 32 93% 30 30.07 0.0
03 01:15 SW 6 10.00 Fair CLR 35.6 32 87% 31 30.07 0.0
03 00:55 SW 6 10.00 Fair CLR 35.6 32 87% 31 30.07 0.0
03 00:35 SW 7 10.00 Fair CLR 35.6 32 87% 31 30.07 0.0
03 00:15 SW 5 10.00 Fair CLR 35.6 32 87% 32 30.07 0.0
02 23:55 SW 3 10.00 Fair CLR 35.6 32 87% 30.07 0.0
02 23:35 SW 3 10.00 Fair CLR 35.6 32 87% 30.07 0.0
02 23:15 W 3 10.00 Fair CLR 35.6 32 87% 30.07 0.0
02 22:55 W 3 10.00 Fair CLR 37.4 32 81% 30.08 0.0
02 22:35 W 3 10.00 Fair CLR 39.2 32 75% 30.08 0.0
02 22:15 NW 5 10.00 Fair CLR 37.4 32 81% 34 30.07 0.0
02 21:55 NW 5 10.00 Fair CLR 41 32 70% 38 30.07 0.0
02 21:35 N 6 10.00 Mostly Cloudy FEW060 BKN075 41 32 70% 38 30.06 0.0
02 21:15 N 7 10.00 Overcast OVC075 42.8 32 66% 39 30.06 0.0
02 20:55 N 7 10.00 Overcast OVC075 44.6 30.2 57% 41 30.05 0.0
02 20:35 N 7 10.00 Overcast OVC075 44.6 30.2 57% 41 30.05 0.0
02 20:15 N 9 10.00 Overcast OVC075 44.6 28.4 53% 40 30.05 0.0
02 19:35 N 13 10.00 Overcast OVC075 46.4 26.6 46% 41 30.04 0.0
02 19:15 N 12 10.00 Overcast FEW060 OVC075 46.4 26.6 46% 42 30.04 0.0
02 18:55 N 13 10.00 Overcast FEW060 OVC075 46.4 26.6 46% 41 30.04 0.0
02 18:35 N 15 10.00 Overcast SCT060 OVC075 48.2 26.6 43% 43 30.03 0.0
02 18:15 N 14 10.00 Overcast BKN060 OVC075 48.2 26.6 43% 43 30.03 0.0
02 17:55 N 13 10.00 Overcast FEW060 OVC075 48.2 24.8 40% 43 30.03 0.0
02 17:35 N 14 G 20 10.00 Overcast SCT060 OVC075 48.2 26.6 43% 43 30.02 0.0
02 17:15 NW 10 G 20 10.00 Overcast OVC075 48.2 24.8 40% 44 30.02 0.0
02 16:35 N 9 10.00 Overcast OVC060 48.2 24.8 40% 45 30.02 0.0
02 16:15 N 13 G 18 10.00 Mostly Cloudy BKN060 48.2 24.8 40% 43 30.02 0.0
02 15:55 NW 13 G 18 10.00 Mostly Cloudy BKN060 50 24.8 37% 46 30.03 0.0
02 15:35 N 10 10.00 Overcast OVC060 48.2 26.6 43% 44 30.03 0.0
02 15:15 NW 9 G 20 10.00 Overcast OVC060 50 24.8 37% 47 30.04 0.0
02 14:35 N 15 10.00 Overcast OVC050 50 26.6 40% 45 30.04 0.0
02 14:15 N 13 G 20 10.00 Mostly Cloudy BKN050 BKN065 50 24.8 37% 46 30.04 0.0
02 13:55 NW 17 G 21 10.00 Mostly Cloudy BKN050 50 26.6 50 38.7 40% 45 30.05 0.0
02 13:35 NW 9 G 21 10.00 Partly Cloudy SCT050 50 26.6 40% 47 30.05 0.0
02 13:15 NW 16 G 24 10.00 Mostly Cloudy BKN050 48.2 26.6 43% 43 30.05 0.0
02 12:55 NW 16 G 20 10.00 Mostly Cloudy BKN050 48.2 26.6 43% 43 30.05 0.0
02 12:35 NW 16 G 21 10.00 Partly Cloudy SCT050 48.2 26.6 43% 43 30.06 0.0
02 12:15 N 15 G 18 10.00 A Few Clouds FEW045 FEW050 48.2 28.4 46% 43 30.06 0.0
02 11:55 NW 13 G 22 10.00 Fair CLR 48.2 28.4 46% 43 30.07 0.0
02 11:35 NW 15 10.00 Fair CLR 48.2 28.4 46% 43 30.06 0.0
02 11:15 N 14 10.00 Fair CLR 46.4 28.4 50% 41 30.07 0.0
02 10:55 NW 14 10.00 Fair CLR 46.4 26.6 46% 41 30.06 0.0
02 10:36 N 15 G 20 10.00 Fair CLR 46.4 28.4 50% 41 30.06 0.0
02 10:15 N 16 G 20 10.00 Fair CLR 44.6 30.2 57% 38 30.06 0.0
02 09:55 N 10 10.00 Fair CLR 44.6 30.2 57% 40 30.06 0.0
02 09:35 NW 12 10.00 Fair CLR 42.8 28.4 57% 37 30.06 0.0
02 08:55 NW 12 10.00 Fair CLR 41 28.4 61% 35 30.06 0.0
02 08:35 NW 9 10.00 Fair CLR 41 28.4 61% 36 30.05 0.0
02 08:15 NW 9 10.00 Fair CLR 39.2 30.2 70% 34 30.04 0.0
02 07:55 NW 8 10.00 Fair CLR 39.2 32 39.6 35.2 75% 34 30.04 0.0
02 07:35 NW 7 10.00 Fair CLR 37.4 32 81% 33 30.04 0.0
02 07:15 NW 3 10.00 Fair CLR 35.6 32 87% 30.04 0.0
02 06:55 NW 6 10.00 Fair CLR 35.6 30.2 81% 31 30.04 0.0
02 06:35 NW 8 10.00 Fair CLR 35.6 30.2 81% 30 30.03 0.0
02 06:15 NW 8 10.00 A Few Clouds FEW070 35.6 30.2 81% 30 30.03 0.0
02 05:55 NW 7 10.00 Mostly Cloudy BKN070 35.6 30.2 81% 31 30.03 0.0
02 05:35 NW 7 10.00 Overcast OVC070 35.6 32 87% 31 30.03 0.0
02 05:15 NW 8 10.00 Partly Cloudy SCT075 SCT080 37.4 32 81% 32 30.04 0.0
02 04:55 NW 7 10.00 Mostly Cloudy FEW055 BKN065 37.4 32 81% 33 30.04 0.0
02 04:35 W 7 10.00 Overcast SCT055 BKN065 OVC080 37.4 33.8 87% 33 30.03 0.0
02 04:15 NW 7 10.00 Overcast FEW048 SCT060 OVC075 39.2 33.8 81% 35 30.03 0.0
02 03:55 W 6 10.00 Overcast OVC075 39.2 35.6 87% 36 30.03 0.0
02 03:35 NW 7 10.00 Overcast FEW065 OVC075 39.2 33.8 81% 35 30.03 0.0
02 03:15 NW 5 10.00 Overcast SCT065 OVC075 37.4 33.8 87% 34 30.03 0.0
02 02:55 NW 5 10.00 Partly Cloudy FEW065 SCT075 37.4 33.8 87% 34 30.03 0.0
02 02:36 NW 6 10.00 A Few Clouds FEW070 37.4 33.8 87% 33 30.04 0.0
02 02:14 NW 6 10.00 Mostly Cloudy BKN070 37.4 33.8 87% 33 30.04 0.0
02 01:55 NW 6 10.00 Partly Cloudy SCT080 39.2 33.8 48.9 36.3 81% 36 30.04 0.0
02 01:35 NW 7 10.00 Fair CLR 37.4 35.6 93% 33 30.05 0.0
02 01:15 W 7 10.00 Fair CLR 37.4 35.6 93% 33 30.05 0.0
02 00:55 W 7 10.00 Fair CLR 39.2 35.6 87% 35 30.05 0.0
02 00:35 W 5 10.00 Fair CLR 39.2 35.6 87% 36 30.04 0.0
02 00:15 W 5 10.00 Fair CLR 41 35.6 81% 38 30.04 0.0
01 23:55 W 3 10.00 Fair CLR 39.2 37.4 93% 30.04 0.0
01 23:35 W 6 10.00 A Few Clouds FEW075 42.8 35.6 76% 40 30.05 0.0
01 23:15 NW 3 10.00 Mostly Cloudy FEW041 SCT075 BKN085 41 37.4 87% 30.04 0.0
01 22:55 NW 5 10.00 Overcast BKN048 BKN055 OVC080 42.8 37.4 81% 41 30.04 0.0
01 22:35 NW 6 10.00 Mostly Cloudy SCT055 BKN090 42.8 37.4 81% 40 30.04 0.0
01 22:15 NW 7 10.00 Fair CLR 41 37.4 87% 37 30.03 0.0
01 21:55 NW 5 10.00 Partly Cloudy SCT060 SCT090 44.6 37.4 76% 43 30.02 0.0
01 21:35 NW 7 10.00 Overcast OVC050 46.4 37.4 71% 43 30.02 0.0
Date Time (edt) Wind (mph) Vis. (mi.) Weather Sky Cond. Air Dwpt Max. Min. Relative Humidity Wind Chill (°F) Heat Index (°F) altimeter (in) sea level (mb) 1 hr 3 hr 6 hr
6 hour
Temperature (ºF) Pressure Precipitation (in)